createdAt,value
2023-01-09T00:00:08.725Z,6.38
2023-01-09T00:02:35.237Z,6.70
2023-01-09T00:05:01.703Z,7.45
2023-01-09T00:07:28.218Z,6.45
2023-01-09T00:09:54.568Z,6.63
2023-01-09T00:12:21.198Z,5.40
2023-01-09T00:14:47.579Z,7.00
2023-01-09T00:17:14.169Z,6.65
2023-01-09T00:19:40.614Z,7.30
2023-01-09T00:22:09.561Z,6.03
2023-01-09T00:24:36.430Z,5.60
2023-01-09T00:27:02.797Z,7.35
2023-01-09T00:29:29.237Z,7.13
2023-01-09T00:31:55.702Z,5.80
2023-01-09T00:34:22.145Z,6.90
2023-01-09T00:36:48.820Z,6.72
2023-01-09T00:39:15.301Z,5.43
2023-01-09T00:41:47.315Z,5.38
2023-01-09T00:44:16.081Z,6.13
2023-01-09T00:46:45.288Z,6.63
2023-01-09T00:49:12.327Z,7.05
2023-01-09T00:51:39.746Z,5.53
2023-01-09T00:54:06.332Z,5.85
2023-01-09T00:56:34.697Z,5.78
2023-01-09T00:59:01.150Z,5.85
2023-01-09T01:01:27.662Z,5.40
2023-01-09T01:03:54.179Z,4.30
2023-01-09T01:06:39.231Z,5.57
2023-01-09T01:09:05.618Z,7.38
2023-01-09T01:11:32.495Z,4.10
2023-01-09T01:13:59.181Z,5.70
2023-01-09T01:16:25.874Z,5.15
2023-01-09T01:18:52.404Z,4.93
2023-01-09T01:21:19.015Z,4.20
2023-01-09T01:23:45.444Z,4.60
2023-01-09T01:26:13.911Z,4.30
2023-01-09T01:28:40.550Z,3.67
2023-01-09T01:31:07.510Z,4.25
2023-01-09T01:33:35.893Z,5.47
2023-01-09T01:36:03.252Z,4.07
2023-01-09T01:38:30.046Z,3.47
2023-01-09T01:40:56.784Z,4.53
2023-01-09T01:43:23.401Z,6.28
2023-01-09T01:45:49.883Z,6.97
2023-01-09T01:48:18.125Z,5.20
2023-01-09T01:50:46.521Z,5.47
2023-01-09T01:53:22.160Z,8.02
2023-01-09T01:58:15.394Z,7.70
2023-01-09T02:00:47.029Z,7.60
2023-01-09T02:03:15.647Z,6.88
2023-01-09T02:05:42.066Z,8.98
2023-01-09T02:08:08.970Z,10.38
2023-01-09T02:10:37.079Z,9.43
2023-01-09T02:13:03.778Z,8.18
2023-01-09T02:15:32.915Z,11.48
2023-01-09T02:18:08.535Z,10.10
2023-01-09T02:23:19.491Z,8.90
2023-01-09T02:25:58.318Z,9.52
2023-01-09T02:28:34.005Z,10.75
2023-01-09T02:31:10.928Z,10.57
2023-01-09T02:33:40.226Z,12.88
2023-01-09T02:36:12.227Z,15.55
2023-01-09T02:38:57.108Z,14.57
2023-01-09T02:41:42.356Z,12.57
2023-01-09T02:44:16.685Z,13.50
2023-01-09T02:46:43.374Z,10.93
2023-01-09T02:49:10.043Z,13.32
2023-01-09T02:51:36.431Z,15.40
2023-01-09T02:54:06.848Z,12.70
2023-01-09T02:57:05.457Z,14.65
2023-01-09T02:59:31.849Z,14.15
2023-01-09T03:01:58.304Z,14.82
2023-01-09T03:04:27.676Z,16.15
2023-01-09T03:06:58.375Z,14.60
2023-01-09T03:09:27.770Z,16.10
2023-01-09T03:11:57.616Z,14.35
2023-01-09T03:14:25.660Z,15.27
2023-01-09T03:17:01.827Z,13.32
2023-01-09T03:19:30.642Z,15.32
2023-01-09T03:21:57.412Z,15.13
2023-01-09T03:24:23.822Z,14.50
2023-01-09T03:26:50.481Z,16.95
2023-01-09T03:29:16.894Z,18.77
2023-01-09T03:31:43.314Z,13.90
2023-01-09T03:34:09.705Z,16.35
2023-01-09T03:36:36.123Z,12.18
2023-01-09T03:39:02.579Z,12.23
2023-01-09T03:41:28.922Z,12.45
2023-01-09T03:43:55.323Z,11.60
2023-01-09T03:46:21.710Z,12.57
2023-01-09T03:48:48.462Z,12.20
2023-01-09T03:51:14.838Z,14.85
2023-01-09T03:53:41.313Z,16.15
2023-01-09T03:56:07.867Z,13.32
2023-01-09T03:58:34.403Z,14.95
2023-01-09T04:01:02.058Z,12.48
2023-01-09T04:03:28.611Z,14.07
2023-01-09T04:05:55.198Z,13.88
2023-01-09T04:08:21.572Z,15.98
2023-01-09T04:10:48.790Z,13.40
2023-01-09T04:13:15.460Z,11.02
2023-01-09T04:15:41.836Z,11.57
2023-01-09T04:18:08.238Z,13.10
2023-01-09T04:20:34.700Z,11.35
2023-01-09T04:23:01.431Z,15.38
2023-01-09T04:25:27.724Z,13.02
2023-01-09T04:27:54.068Z,12.88
2023-01-09T04:30:20.429Z,12.50
2023-01-09T04:32:46.850Z,10.32
2023-01-09T04:35:13.382Z,11.82
2023-01-09T04:37:39.773Z,10.15
2023-01-09T04:40:08.974Z,9.98
2023-01-09T04:42:35.378Z,11.05
2023-01-09T04:45:01.951Z,11.43
2023-01-09T04:47:28.362Z,10.25
2023-01-09T04:49:54.735Z,13.20
2023-01-09T04:52:21.158Z,9.25
2023-01-09T04:54:47.607Z,8.50
2023-01-09T04:57:14.089Z,13.43
2023-01-09T04:59:40.454Z,9.35
2023-01-09T05:02:07.019Z,8.07
2023-01-09T05:04:33.552Z,8.27
2023-01-09T05:06:59.980Z,9.63
2023-01-09T05:09:26.363Z,8.07
2023-01-09T05:11:52.768Z,7.43
2023-01-09T05:14:19.306Z,7.72
2023-01-09T05:16:45.682Z,7.18
2023-01-09T05:19:12.139Z,6.20
2023-01-09T05:21:38.583Z,7.18
2023-01-09T05:24:05.106Z,6.57
2023-01-09T05:26:31.787Z,8.45
2023-01-09T05:28:58.224Z,10.68
2023-01-09T05:31:25.925Z,6.43
2023-01-09T05:33:52.926Z,6.43
2023-01-09T05:36:19.540Z,6.60
2023-01-09T05:38:45.892Z,5.90
2023-01-09T05:41:12.291Z,6.40
2023-01-09T05:43:38.673Z,4.53
2023-01-09T05:46:05.269Z,5.10
2023-01-09T05:48:31.714Z,5.18
2023-01-09T05:50:58.114Z,4.45
2023-01-09T05:53:24.536Z,7.22
2023-01-09T05:55:50.993Z,5.68
2023-01-09T05:58:17.329Z,5.78
2023-01-09T06:00:43.724Z,5.93
2023-01-09T06:03:10.219Z,5.30
2023-01-09T06:05:36.678Z,4.72
2023-01-09T06:08:03.239Z,5.50
2023-01-09T06:10:29.650Z,5.00
2023-01-09T06:12:56.123Z,5.22
2023-01-09T06:15:22.473Z,6.15
2023-01-09T06:17:48.873Z,5.00
2023-01-09T06:20:15.301Z,4.97
2023-01-09T06:22:41.647Z,5.38
2023-01-09T06:25:08.326Z,4.85
2023-01-09T06:27:34.819Z,5.45
2023-01-09T06:30:01.266Z,5.05
2023-01-09T06:32:27.654Z,5.93
2023-01-09T06:34:54.050Z,5.35
2023-01-09T06:37:20.453Z,5.32
2023-01-09T06:39:46.834Z,5.03
2023-01-09T06:42:13.481Z,4.63
2023-01-09T06:44:39.932Z,4.85
2023-01-09T06:47:06.335Z,5.18
2023-01-09T06:49:32.713Z,4.50
2023-01-09T06:51:59.173Z,6.32
2023-01-09T06:54:27.448Z,4.60
2023-01-09T06:56:55.026Z,4.53
2023-01-09T06:59:21.461Z,4.95
2023-01-09T07:01:48.008Z,4.28
2023-01-09T07:04:14.564Z,4.45
2023-01-09T07:06:41.028Z,7.30
2023-01-09T07:09:07.496Z,5.15
2023-01-09T07:11:33.925Z,4.38
2023-01-09T07:14:00.346Z,6.03
2023-01-09T07:16:26.728Z,5.30
2023-01-09T07:18:54.730Z,4.85
2023-01-09T07:21:21.159Z,6.70
2023-01-09T07:23:47.478Z,5.05
2023-01-09T07:26:14.011Z,5.03
2023-01-09T07:28:40.387Z,4.05
2023-01-09T07:31:07.683Z,3.95
2023-01-09T07:33:34.542Z,5.80
2023-01-09T07:36:00.943Z,4.57
2023-01-09T07:38:27.684Z,5.15
2023-01-09T07:40:54.070Z,3.78
2023-01-09T07:43:20.454Z,4.28
2023-01-09T07:45:46.882Z,4.32
2023-01-09T07:48:13.288Z,4.55
2023-01-09T07:50:39.700Z,6.32
2023-01-09T07:53:06.088Z,5.10
2023-01-09T07:55:32.431Z,5.53
2023-01-09T07:57:58.990Z,6.15
2023-01-09T08:00:25.422Z,4.80
2023-01-09T08:02:52.949Z,4.30
2023-01-09T08:05:19.691Z,4.07
2023-01-09T08:07:46.061Z,5.05
2023-01-09T08:10:12.776Z,4.40
2023-01-09T08:12:42.257Z,4.88
2023-01-09T08:15:08.798Z,4.50
2023-01-09T08:17:35.318Z,5.82
2023-01-09T08:20:01.689Z,4.95
2023-01-09T08:22:28.097Z,4.07
2023-01-09T08:24:54.510Z,4.85
2023-01-09T08:27:20.884Z,4.85
2023-01-09T08:29:47.298Z,4.05
2023-01-09T08:32:13.829Z,4.78
2023-01-09T08:34:40.216Z,4.28
2023-01-09T08:37:06.710Z,5.18
2023-01-09T08:39:33.374Z,5.47
2023-01-09T08:42:18.476Z,4.03
2023-01-09T08:45:03.779Z,4.15
2023-01-09T08:47:33.360Z,6.18
2023-01-09T08:50:00.145Z,3.92
2023-01-09T08:52:26.717Z,4.85
2023-01-09T08:54:53.069Z,3.97
2023-01-09T08:57:19.810Z,4.93
2023-01-09T08:59:46.191Z,7.55
2023-01-09T09:02:12.594Z,4.95
2023-01-09T09:04:39.218Z,3.55
2023-01-09T09:07:05.702Z,5.75
2023-01-09T09:09:32.065Z,3.50
2023-01-09T09:11:58.499Z,4.63
2023-01-09T09:14:43.718Z,4.05
2023-01-09T09:17:10.280Z,3.67
2023-01-09T09:19:36.728Z,3.17
2023-01-09T09:22:03.264Z,4.07
2023-01-09T09:24:29.637Z,4.03
2023-01-09T09:26:56.043Z,2.80
2023-01-09T09:29:22.526Z,4.28
2023-01-09T09:31:48.857Z,4.10
2023-01-09T09:34:15.392Z,4.28
2023-01-09T09:36:42.022Z,3.88
2023-01-09T09:39:09.314Z,6.25
2023-01-09T09:42:14.831Z,3.75
2023-01-09T09:44:54.350Z,5.40
2023-01-09T09:47:28.958Z,2.97
2023-01-09T09:50:06.380Z,3.03
2023-01-09T09:52:32.810Z,3.65
2023-01-09T09:55:02.289Z,6.88
2023-01-09T09:57:38.139Z,4.93
2023-01-09T10:00:05.523Z,5.65
2023-01-09T10:02:47.489Z,4.03
2023-01-09T10:05:30.864Z,7.30
2023-01-09T10:08:11.582Z,2.67
2023-01-09T10:10:51.323Z,4.85
2023-01-09T10:13:37.473Z,2.92
2023-01-09T10:16:04.336Z,3.97
2023-01-09T10:18:32.450Z,3.10
2023-01-09T10:21:06.351Z,2.65
2023-01-09T10:23:32.737Z,1.80
2023-01-09T10:26:07.491Z,1.63
2023-01-09T10:28:52.916Z,1.00
2023-01-09T10:31:32.309Z,0.82
2023-01-09T10:34:04.615Z,0.80
2023-01-09T10:36:34.019Z,2.90
2023-01-09T10:39:08.507Z,1.25
2023-01-09T10:41:37.890Z,2.35
2023-01-09T10:44:07.740Z,1.02
2023-01-09T10:46:37.773Z,1.52
2023-01-09T10:49:11.201Z,0.85
2023-01-09T10:51:45.468Z,0.80
2023-01-09T10:54:15.892Z,3.67
2023-01-09T10:56:44.745Z,1.00
2023-01-09T10:59:11.204Z,1.02
2023-01-09T11:01:39.573Z,0.93
2023-01-09T11:04:29.334Z,1.75
2023-01-09T11:07:18.813Z,2.15
2023-01-09T11:10:02.167Z,2.22
2023-01-09T11:12:29.901Z,1.88
2023-01-09T11:14:56.465Z,1.35
2023-01-09T11:17:26.884Z,0.90
2023-01-09T11:20:06.809Z,0.20
2023-01-09T11:23:02.551Z,1.15
2023-01-09T11:25:29.205Z,1.02
2023-01-09T11:28:06.247Z,1.27
2023-01-09T11:30:36.540Z,0.73
2023-01-09T11:33:24.655Z,0.50
2023-01-09T11:35:56.238Z,1.48
2023-01-09T11:38:22.842Z,0.80
2023-01-09T11:40:51.437Z,1.90
2023-01-09T11:43:30.731Z,2.08
2023-01-09T11:46:01.423Z,1.02
2023-01-09T11:48:29.786Z,0.70
2023-01-09T11:50:57.373Z,0.68
2023-01-09T11:53:24.684Z,2.70
2023-01-09T11:56:01.384Z,0.80
2023-01-09T11:58:32.604Z,0.73
2023-01-09T12:01:10.309Z,0.57
2023-01-09T12:03:55.321Z,0.95
2023-01-09T12:06:30.478Z,0.25
2023-01-09T12:08:59.935Z,0.32
2023-01-09T12:11:26.347Z,0.85
2023-01-09T12:13:52.717Z,0.70
2023-01-09T12:16:21.266Z,0.85
2023-01-09T12:18:48.213Z,1.17
2023-01-09T12:21:15.615Z,1.95
2023-01-09T12:23:42.915Z,0.90
2023-01-09T12:26:15.390Z,1.17
2023-01-09T12:28:48.023Z,1.52
2023-01-09T12:31:14.465Z,1.27
2023-01-09T12:33:40.995Z,1.17
2023-01-09T12:36:07.594Z,1.83
2023-01-09T12:38:40.800Z,2.15
2023-01-09T12:41:08.206Z,1.00
2023-01-09T12:43:41.045Z,2.83
2023-01-09T12:46:19.159Z,1.73
2023-01-09T12:48:56.309Z,1.08
2023-01-09T12:51:30.837Z,2.92
2023-01-09T12:54:10.651Z,2.50
2023-01-09T12:56:43.981Z,1.42
2023-01-09T12:59:30.337Z,1.10
2023-01-09T13:02:09.097Z,2.08
2023-01-09T13:04:39.686Z,1.98
2023-01-09T13:07:14.339Z,2.03
2023-01-09T13:09:47.690Z,1.52
2023-01-09T13:12:15.911Z,0.70
2023-01-09T13:15:01.084Z,1.85
2023-01-09T13:17:40.532Z,1.30
2023-01-09T13:20:15.755Z,2.08
2023-01-09T13:22:47.653Z,1.52
2023-01-09T13:25:20.570Z,4.03
2023-01-09T13:27:52.420Z,0.93
2023-01-09T13:30:18.875Z,2.90
2023-01-09T13:32:58.490Z,0.77
2023-01-09T13:35:24.948Z,0.45
2023-01-09T13:37:52.540Z,0.65
2023-01-09T13:40:26.484Z,2.03
2023-01-09T13:43:04.263Z,0.50
2023-01-09T13:45:32.829Z,1.63
2023-01-09T13:48:19.861Z,2.72
2023-01-09T13:50:47.379Z,1.50
2023-01-09T13:53:20.382Z,1.13
2023-01-09T13:55:59.898Z,4.50
2023-01-09T13:58:26.457Z,4.03
2023-01-09T14:00:54.235Z,1.42
2023-01-09T14:03:22.672Z,2.88
2023-01-09T14:05:49.577Z,3.33
2023-01-09T14:08:21.537Z,3.80
2023-01-09T14:10:52.444Z,2.22
2023-01-09T14:13:18.852Z,2.22
2023-01-09T14:15:47.086Z,3.22
2023-01-09T14:18:23.832Z,0.95
2023-01-09T14:20:58.413Z,2.95
2023-01-09T14:23:50.813Z,2.55
2023-01-09T14:26:26.301Z,5.18
2023-01-09T14:29:12.810Z,1.77
2023-01-09T14:31:39.298Z,1.17
2023-01-09T14:34:32.480Z,1.25
2023-01-09T14:36:59.922Z,1.52
2023-01-09T14:39:27.131Z,3.78
2023-01-09T14:42:02.381Z,0.77
2023-01-09T14:44:28.793Z,3.10
2023-01-09T14:46:58.113Z,1.58
2023-01-09T14:49:35.965Z,4.57
2023-01-09T14:52:08.196Z,3.63
2023-01-09T14:54:37.435Z,5.85
2023-01-09T14:57:22.668Z,5.03
2023-01-09T14:59:59.554Z,3.78
2023-01-09T15:02:28.178Z,1.80
2023-01-09T15:04:56.971Z,2.00
2023-01-09T15:07:32.866Z,2.20
2023-01-09T15:10:01.242Z,1.88
2023-01-09T15:12:28.207Z,0.88
2023-01-09T15:14:57.175Z,2.55
2023-01-09T15:17:32.165Z,1.38
2023-01-09T15:20:00.090Z,4.72
2023-01-09T15:22:30.744Z,1.00
2023-01-09T15:24:59.987Z,2.42
2023-01-09T15:27:26.471Z,4.97
2023-01-09T15:29:53.437Z,3.63
2023-01-09T15:32:25.161Z,2.25
2023-01-09T15:34:51.999Z,1.63
2023-01-09T15:37:25.785Z,4.57
2023-01-09T15:39:52.655Z,4.10
2023-01-09T15:42:58.609Z,1.52
2023-01-09T15:45:25.112Z,1.83
2023-01-09T15:47:51.625Z,3.38
2023-01-09T15:50:23.459Z,3.70
2023-01-09T15:52:51.437Z,0.95
2023-01-09T15:55:26.304Z,1.88
2023-01-09T15:57:53.221Z,3.58
2023-01-09T16:00:31.901Z,3.75
2023-01-09T16:03:10.437Z,3.58
2023-01-09T16:05:45.431Z,2.38
2023-01-09T16:08:20.215Z,2.00
2023-01-09T16:10:51.076Z,2.45
2023-01-09T16:13:17.864Z,4.43
2023-01-09T16:15:45.362Z,2.97
2023-01-09T16:18:17.818Z,2.08
2023-01-09T16:20:44.530Z,1.88
2023-01-09T16:23:30.161Z,1.55
2023-01-09T16:26:09.928Z,3.92
2023-01-09T16:28:40.638Z,1.65
2023-01-09T16:31:20.214Z,3.25
2023-01-09T16:33:50.038Z,2.28
2023-01-09T16:36:20.154Z,1.67
2023-01-09T16:38:47.338Z,6.03
2023-01-09T16:41:39.089Z,4.28
2023-01-09T16:44:09.654Z,3.75
2023-01-09T16:46:38.334Z,1.60
2023-01-09T16:49:14.603Z,1.90
2023-01-09T16:51:41.000Z,3.58
2023-01-09T16:54:10.100Z,2.72
2023-01-09T16:56:37.381Z,4.05
2023-01-09T16:59:03.982Z,3.17
2023-01-09T17:01:30.492Z,2.75
2023-01-09T17:03:57.094Z,2.42
2023-01-09T17:06:28.183Z,6.15
2023-01-09T17:08:54.666Z,2.80
2023-01-09T17:11:25.405Z,3.80
2023-01-09T17:13:51.835Z,2.33
2023-01-09T17:16:19.982Z,4.80
2023-01-09T17:18:46.649Z,3.97
2023-01-09T17:21:15.443Z,2.78
2023-01-09T17:23:41.849Z,6.78
2023-01-09T17:26:30.486Z,2.63
2023-01-09T17:28:57.067Z,2.22
2023-01-09T17:31:23.546Z,5.20
2023-01-09T17:33:50.346Z,2.00
2023-01-09T17:36:19.919Z,2.88
2023-01-09T17:38:47.330Z,2.63
2023-01-09T17:41:13.758Z,2.28
2023-01-09T17:43:43.132Z,3.85
2023-01-09T17:46:14.708Z,6.50
2023-01-09T17:48:41.172Z,3.53
2023-01-09T17:51:08.771Z,2.45
2023-01-09T17:53:35.109Z,6.53
2023-01-09T17:56:01.662Z,4.75
2023-01-09T17:58:30.345Z,3.83
2023-01-09T18:01:00.105Z,4.15
2023-01-09T18:03:33.462Z,3.10
2023-01-09T18:06:00.216Z,4.35
2023-01-09T18:08:26.668Z,2.53
2023-01-09T18:10:53.129Z,4.30
2023-01-09T18:13:19.607Z,2.95
2023-01-09T18:15:46.438Z,1.70
2023-01-09T18:18:13.078Z,2.85
2023-01-09T18:20:42.950Z,3.90
2023-01-09T18:23:10.952Z,3.42
2023-01-09T18:25:44.018Z,5.80
2023-01-09T18:28:11.021Z,5.15
2023-01-09T18:30:37.684Z,6.38
2023-01-09T18:33:04.241Z,7.78
2023-01-09T18:35:32.689Z,5.90
2023-01-09T18:37:59.136Z,4.57
2023-01-09T18:40:25.885Z,5.10
2023-01-09T18:42:52.356Z,4.53
2023-01-09T18:45:18.910Z,4.03
2023-01-09T18:47:45.407Z,2.72
2023-01-09T18:50:12.021Z,4.32
2023-01-09T18:52:38.421Z,3.85
2023-01-09T18:55:05.148Z,4.90
2023-01-09T18:57:31.582Z,3.88
2023-01-09T18:59:58.046Z,4.22
2023-01-09T19:02:25.305Z,3.47
2023-01-09T19:04:53.971Z,7.57
2023-01-09T19:07:20.305Z,5.55
2023-01-09T19:09:46.676Z,3.65
2023-01-09T19:12:13.090Z,5.38
2023-01-09T19:14:39.599Z,6.00
2023-01-09T19:17:06.888Z,4.97
2023-01-09T19:19:33.740Z,3.78
2023-01-09T19:22:00.135Z,2.67
2023-01-09T19:24:26.563Z,5.25
2023-01-09T19:26:52.957Z,2.13
2023-01-09T19:29:19.346Z,5.53
2023-01-09T19:31:48.767Z,4.90
2023-01-09T19:34:16.020Z,4.10
2023-01-09T19:36:47.288Z,4.57
2023-01-09T19:39:14.089Z,3.22
2023-01-09T19:41:40.464Z,4.60
2023-01-09T19:44:06.909Z,2.92
2023-01-09T19:46:33.742Z,3.75
2023-01-09T19:49:04.605Z,6.47
2023-01-09T19:51:31.610Z,2.80
2023-01-09T19:56:27.159Z,4.28
2023-01-09T19:58:54.806Z,4.72
2023-01-09T20:01:24.571Z,1.50
2023-01-09T20:03:51.457Z,2.53
2023-01-09T20:06:22.329Z,3.20
2023-01-09T20:08:49.144Z,2.28
2023-01-09T20:11:15.892Z,4.57
2023-01-09T20:13:42.608Z,2.50
2023-01-09T20:16:13.229Z,4.20
2023-01-09T20:18:39.692Z,3.58
2023-01-09T20:21:06.690Z,1.80
2023-01-09T20:23:33.227Z,3.72
2023-01-09T20:26:00.474Z,6.30
2023-01-09T20:28:27.426Z,2.13
2023-01-09T20:30:54.227Z,3.60
2023-01-09T20:33:21.549Z,4.07
2023-01-09T20:35:47.916Z,3.78
2023-01-09T20:38:14.436Z,2.08
2023-01-09T20:40:43.844Z,4.90
2023-01-09T20:43:12.419Z,1.95
2023-01-09T20:45:39.649Z,4.03
2023-01-09T20:48:06.310Z,3.17
2023-01-09T20:50:33.126Z,3.47
2023-01-09T20:52:59.482Z,2.58
2023-01-09T20:55:26.028Z,4.78
2023-01-09T20:57:52.513Z,2.20
2023-01-09T21:00:19.015Z,3.67
2023-01-09T21:02:45.469Z,2.40
2023-01-09T21:05:11.814Z,3.65
2023-01-09T21:07:38.156Z,2.53
2023-01-09T21:10:04.793Z,2.47
2023-01-09T21:12:37.703Z,1.58
2023-01-09T21:15:05.461Z,1.17
2023-01-09T21:17:32.779Z,2.70
2023-01-09T21:19:59.298Z,3.08
2023-01-09T21:22:25.871Z,2.58
2023-01-09T21:24:52.316Z,1.73
2023-01-09T21:27:18.808Z,2.50
2023-01-09T21:29:45.682Z,3.42
2023-01-09T21:32:12.183Z,4.75
2023-01-09T21:34:38.607Z,2.33
2023-01-09T21:37:05.234Z,3.55
2023-01-09T21:39:31.631Z,3.95
2023-01-09T21:42:16.868Z,3.28
2023-01-09T21:45:01.749Z,3.42
2023-01-09T21:47:31.361Z,2.53
2023-01-09T21:49:57.812Z,1.95
2023-01-09T21:52:25.643Z,2.85
2023-01-09T21:54:52.084Z,4.70
2023-01-09T21:57:18.461Z,2.83
2023-01-09T21:59:44.917Z,4.25
2023-01-09T22:02:15.748Z,3.42
2023-01-09T22:04:43.034Z,3.92
2023-01-09T22:07:10.371Z,6.65
2023-01-09T22:09:37.143Z,3.08
2023-01-09T22:12:03.772Z,3.13
2023-01-09T22:14:30.189Z,6.30
2023-01-09T22:16:56.523Z,4.03
2023-01-09T22:19:23.068Z,2.42
2023-01-09T22:21:49.502Z,2.72
2023-01-09T22:24:17.398Z,3.55
2023-01-09T22:26:44.250Z,4.22
2023-01-09T22:29:10.736Z,3.17
2023-01-09T22:31:39.943Z,2.67
2023-01-09T22:34:06.566Z,2.75
2023-01-09T22:36:33.123Z,1.90
2023-01-09T22:39:00.495Z,2.75
2023-01-09T22:41:29.576Z,3.50
2023-01-09T22:43:56.307Z,3.85
2023-01-09T22:46:22.809Z,3.15
2023-01-09T22:48:49.365Z,1.83
2023-01-09T22:51:16.960Z,3.00
2023-01-09T22:53:43.729Z,4.43
2023-01-09T22:56:12.173Z,6.57
2023-01-09T22:58:38.966Z,3.17
2023-01-09T23:01:05.843Z,4.05
2023-01-09T23:03:32.711Z,2.40
2023-01-09T23:05:59.806Z,3.75
2023-01-09T23:08:26.226Z,3.47
2023-01-09T23:10:53.656Z,4.40
2023-01-09T23:13:20.163Z,2.72
2023-01-09T23:15:46.643Z,2.28
2023-01-09T23:18:13.036Z,3.28
2023-01-09T23:20:39.438Z,4.65
2023-01-09T23:23:08.490Z,3.08
2023-01-09T23:25:36.388Z,2.45
2023-01-09T23:28:03.176Z,3.95
2023-01-09T23:30:30.136Z,5.75
2023-01-09T23:32:57.417Z,2.60
2023-01-09T23:35:23.998Z,5.10
2023-01-09T23:37:50.421Z,3.25
2023-01-09T23:40:17.975Z,3.13
2023-01-09T23:43:02.831Z,4.13
2023-01-09T23:45:33.487Z,3.80
2023-01-09T23:48:00.132Z,4.18
2023-01-09T23:50:26.914Z,6.78
2023-01-09T23:52:53.283Z,1.88
2023-01-09T23:55:19.984Z,3.60
2023-01-09T23:57:54.375Z,4.18
